createdAt,value
2022-09-17T00:03:39.673Z,1.15
2022-09-17T00:08:41.899Z,1.67
2022-09-17T00:13:44.326Z,2.30
2022-09-17T00:18:45.568Z,1.55
2022-09-17T00:23:47.081Z,1.92
2022-09-17T00:28:53.017Z,1.60
2022-09-17T00:33:55.024Z,1.05
2022-09-17T00:38:58.822Z,1.55
2022-09-17T00:44:21.931Z,1.40
2022-09-17T00:49:28.482Z,0.85
2022-09-17T00:54:29.857Z,1.00
2022-09-17T00:59:31.373Z,1.23
2022-09-17T01:04:32.672Z,1.02
2022-09-17T01:09:53.339Z,1.15
2022-09-17T01:15:12.057Z,1.25
2022-09-17T01:20:19.256Z,1.15
2022-09-17T01:25:53.395Z,1.15
2022-09-17T01:31:25.513Z,1.40
2022-09-17T01:37:02.278Z,1.00
2022-09-17T01:42:17.598Z,1.00
2022-09-17T01:47:27.638Z,1.00
2022-09-17T01:52:33.771Z,0.90
2022-09-17T01:57:45.278Z,1.20
2022-09-17T02:02:53.609Z,1.30
2022-09-17T02:08:04.601Z,1.05
2022-09-17T02:13:21.654Z,1.42
2022-09-17T02:18:29.335Z,0.98
2022-09-17T02:23:36.677Z,0.80
2022-09-17T02:28:41.876Z,1.00
2022-09-17T02:33:48.071Z,1.25
2022-09-17T02:38:58.362Z,1.20
2022-09-17T02:44:13.161Z,0.88
2022-09-17T02:49:32.362Z,1.20
2022-09-17T02:54:55.867Z,1.17
2022-09-17T03:00:22.273Z,1.35
2022-09-17T03:05:25.710Z,1.73
2022-09-17T03:10:33.331Z,0.95
2022-09-17T03:15:34.590Z,1.60
2022-09-17T03:20:35.933Z,1.17
2022-09-17T03:25:37.428Z,1.83
2022-09-17T03:30:38.692Z,1.15
2022-09-17T03:35:44.003Z,1.80
2022-09-17T03:40:45.308Z,1.58
2022-09-17T03:45:47.529Z,1.83
2022-09-17T03:50:49.041Z,1.80
2022-09-17T03:55:50.404Z,1.52
2022-09-17T04:00:57.558Z,1.50
2022-09-17T04:05:59.622Z,1.27
2022-09-17T04:11:00.881Z,1.00
2022-09-17T04:16:03.098Z,1.35
2022-09-17T04:21:04.574Z,1.00
2022-09-17T04:26:06.128Z,1.40
2022-09-17T04:31:07.553Z,1.70
2022-09-17T04:36:08.978Z,2.33
2022-09-17T04:41:10.362Z,1.52
2022-09-17T04:46:11.797Z,1.77
2022-09-17T04:51:13.217Z,1.73
2022-09-17T04:56:14.468Z,1.50
2022-09-17T05:01:18.559Z,1.45
2022-09-17T05:06:19.902Z,1.52
2022-09-17T05:11:21.253Z,1.63
2022-09-17T05:16:22.625Z,1.15
2022-09-17T05:21:24.301Z,1.58
2022-09-17T05:26:25.561Z,1.27
2022-09-17T05:31:26.892Z,1.15
2022-09-17T05:36:28.148Z,1.65
2022-09-17T05:41:29.379Z,0.93
2022-09-17T05:46:30.915Z,1.48
2022-09-17T05:51:32.162Z,1.85
2022-09-17T05:56:33.690Z,2.00
2022-09-17T06:01:34.993Z,1.85
2022-09-17T06:06:37.728Z,1.52
2022-09-17T06:11:39.230Z,1.55
2022-09-17T06:16:40.501Z,2.50
2022-09-17T06:21:41.864Z,2.05
2022-09-17T06:26:43.129Z,2.40
2022-09-17T06:31:44.861Z,2.90
2022-09-17T06:36:46.349Z,2.50
2022-09-17T06:41:47.793Z,3.20
2022-09-17T06:46:51.062Z,3.08
2022-09-17T06:51:52.721Z,4.78
2022-09-17T06:56:54.041Z,3.53
2022-09-17T07:01:55.800Z,3.95
2022-09-17T07:06:57.183Z,3.97
2022-09-17T07:11:58.627Z,4.00
2022-09-17T07:16:59.959Z,4.38
2022-09-17T07:22:01.248Z,3.55
2022-09-17T07:27:02.638Z,3.60
2022-09-17T07:32:03.958Z,3.30
2022-09-17T07:37:05.242Z,3.85
2022-09-17T07:42:06.584Z,4.45
2022-09-17T07:47:08.111Z,2.95
2022-09-17T07:52:09.491Z,3.63
2022-09-17T07:57:10.785Z,2.78
2022-09-17T08:02:14.102Z,3.25
2022-09-17T08:07:15.549Z,3.73
2022-09-17T08:12:18.305Z,2.75
2022-09-17T08:17:19.603Z,2.47
2022-09-17T08:22:21.000Z,2.83
2022-09-17T08:27:22.639Z,2.55
2022-09-17T08:32:24.619Z,2.50
2022-09-17T08:37:29.708Z,2.42
2022-09-17T08:42:39.582Z,2.45
2022-09-17T08:47:45.935Z,2.13
2022-09-17T08:53:16.042Z,2.47
2022-09-17T08:58:41.026Z,1.88
2022-09-17T09:03:56.639Z,2.35
2022-09-17T09:09:03.857Z,1.30
2022-09-17T09:14:14.044Z,1.63
2022-09-17T09:19:28.062Z,1.30
2022-09-17T09:30:04.074Z,2.10
2022-09-17T09:35:27.257Z,2.92
2022-09-17T09:40:36.182Z,1.70
2022-09-17T09:45:46.403Z,1.42
2022-09-17T09:51:06.506Z,1.40
2022-09-17T09:56:28.333Z,1.25
2022-09-17T10:01:30.209Z,1.38
2022-09-17T10:06:31.770Z,1.85
2022-09-17T10:11:33.599Z,1.30
2022-09-17T10:16:36.204Z,1.00
2022-09-17T10:21:40.199Z,1.02
2022-09-17T10:26:41.626Z,1.50
2022-09-17T10:31:54.346Z,1.15
2022-09-17T10:36:57.152Z,1.55
2022-09-17T10:42:20.865Z,0.80
2022-09-17T10:47:25.753Z,0.77
2022-09-17T10:52:31.227Z,1.00
2022-09-17T10:57:51.350Z,1.13
2022-09-17T11:03:16.320Z,1.10
2022-09-17T11:08:24.683Z,1.05
2022-09-17T11:13:36.853Z,1.08
2022-09-17T11:18:45.532Z,1.08
2022-09-17T11:24:20.775Z,1.35
2022-09-17T11:30:16.866Z,1.20
2022-09-17T11:35:25.760Z,1.25
2022-09-17T11:40:36.679Z,0.80
2022-09-17T11:45:43.381Z,1.10
2022-09-17T11:50:51.354Z,0.95
2022-09-17T11:56:02.722Z,0.65
2022-09-17T12:01:09.995Z,0.28
2022-09-17T12:06:28.608Z,0.40
2022-09-17T12:11:58.912Z,0.60
2022-09-17T12:17:03.238Z,0.47
2022-09-17T12:22:12.159Z,0.30
2022-09-17T12:27:39.561Z,0.20
2022-09-17T12:33:02.911Z,0.13
2022-09-17T12:38:14.294Z,0.30
2022-09-17T12:43:20.829Z,0.47
2022-09-17T12:49:07.466Z,0.43
2022-09-17T12:54:17.827Z,0.20
2022-09-17T12:59:20.649Z,0.32
2022-09-17T13:05:01.077Z,0.50
2022-09-17T13:10:23.253Z,0.40
2022-09-17T13:15:33.757Z,0.40
2022-09-17T13:25:53.089Z,0.20
2022-09-17T13:31:00.499Z,0.40
2022-09-17T13:36:03.940Z,0.40
2022-09-17T13:41:20.231Z,0.30
2022-09-17T13:46:24.149Z,0.20
2022-09-17T13:51:34.369Z,0.30
2022-09-17T13:56:41.257Z,0.20
2022-09-17T14:01:48.700Z,0.50
2022-09-17T14:06:53.299Z,0.13
2022-09-17T14:11:54.594Z,0.30
2022-09-17T14:16:55.889Z,0.30
2022-09-17T14:22:00.908Z,0.40
2022-09-17T14:27:14.353Z,0.22
2022-09-17T14:32:32.190Z,0.55
2022-09-17T14:37:41.997Z,0.30
2022-09-17T14:42:44.033Z,0.10
2022-09-17T14:47:45.442Z,0.20
2022-09-17T14:52:51.354Z,0.17
2022-09-17T14:57:56.418Z,0.65
2022-09-17T15:03:00.841Z,0.20
2022-09-17T15:08:11.254Z,0.17
2022-09-17T15:13:17.016Z,0.63
2022-09-17T15:18:18.559Z,0.10
2022-09-17T15:23:26.401Z,0.20
2022-09-17T15:28:33.954Z,0.22
2022-09-17T15:33:35.391Z,0.28
2022-09-17T15:38:38.994Z,0.45
2022-09-17T15:43:41.229Z,0.10
2022-09-17T15:48:42.477Z,0.40
2022-09-17T15:53:52.378Z,0.32
2022-09-17T15:59:00.584Z,0.10
2022-09-17T16:04:08.921Z,0.10
2022-09-17T16:09:46.746Z,0.95
2022-09-17T16:14:52.348Z,0.20
2022-09-17T16:19:55.706Z,0.10
2022-09-17T16:24:57.156Z,0.20
2022-09-17T16:30:05.024Z,0.28
2022-09-17T16:35:06.750Z,0.50
2022-09-17T16:40:12.700Z,0.85
2022-09-17T16:45:16.277Z,0.30
2022-09-17T16:50:18.254Z,0.50
2022-09-17T16:55:20.336Z,0.63
2022-09-17T17:00:22.482Z,0.50
2022-09-17T17:05:25.868Z,0.17
2022-09-17T17:10:27.132Z,0.40
2022-09-17T17:15:28.391Z,0.32
2022-09-17T17:20:31.878Z,0.20
2022-09-17T17:25:33.222Z,0.20
2022-09-17T17:30:35.213Z,0.25
2022-09-17T17:35:39.078Z,0.22
2022-09-17T17:40:40.451Z,0.30
2022-09-17T17:45:41.772Z,0.30
2022-09-17T17:50:43.072Z,0.50
2022-09-17T17:55:44.357Z,5.03
2022-09-17T18:00:45.611Z,0.30
2022-09-17T18:05:47.086Z,0.30
2022-09-17T18:10:56.110Z,0.30
2022-09-17T18:15:59.504Z,0.45
2022-09-17T18:21:06.901Z,0.40
2022-09-17T18:26:11.981Z,0.63
2022-09-17T18:31:33.606Z,0.50
2022-09-17T18:36:36.611Z,0.30
2022-09-17T18:41:40.222Z,0.68
2022-09-17T18:46:42.534Z,0.93
2022-09-17T18:51:43.984Z,0.50
2022-09-17T18:56:45.245Z,0.50
2022-09-17T19:01:46.724Z,1.88
2022-09-17T19:06:48.025Z,1.17
2022-09-17T19:11:49.382Z,0.70
2022-09-17T19:16:50.638Z,0.47
2022-09-17T19:21:51.937Z,0.90
2022-09-17T19:26:53.478Z,0.60
2022-09-17T19:31:54.769Z,1.02
2022-09-17T19:36:56.038Z,0.60
2022-09-17T19:41:57.505Z,0.80
2022-09-17T19:46:58.901Z,1.17
2022-09-17T19:52:00.360Z,0.60
2022-09-17T19:57:01.609Z,1.48
2022-09-17T20:02:04.181Z,1.30
2022-09-17T20:07:05.516Z,1.13
2022-09-17T20:12:07.030Z,1.20
2022-09-17T20:17:08.677Z,1.77
2022-09-17T20:22:09.908Z,1.58
2022-09-17T20:27:11.198Z,1.00
2022-09-17T20:32:12.782Z,1.40
2022-09-17T20:37:14.119Z,0.95
2022-09-17T20:42:15.829Z,0.90
2022-09-17T20:47:17.109Z,1.30
2022-09-17T20:52:21.154Z,1.30
2022-09-17T20:57:22.594Z,1.02
2022-09-17T21:02:25.297Z,1.17
2022-09-17T21:07:27.091Z,1.52
2022-09-17T21:12:28.385Z,1.17
2022-09-17T21:17:31.664Z,0.65
2022-09-17T21:22:32.910Z,0.82
2022-09-17T21:27:34.221Z,1.02
2022-09-17T21:32:38.985Z,0.73
2022-09-17T21:37:40.257Z,1.10
2022-09-17T21:42:41.596Z,0.95
2022-09-17T21:47:43.070Z,1.13
2022-09-17T21:52:44.326Z,1.35
2022-09-17T21:57:45.575Z,1.13
2022-09-17T22:02:46.998Z,1.33
2022-09-17T22:07:48.388Z,1.60
2022-09-17T22:12:49.658Z,1.20
2022-09-17T22:17:50.932Z,1.20
2022-09-17T22:22:53.271Z,1.90
2022-09-17T22:28:19.455Z,1.20
2022-09-17T22:33:15.762Z,1.35
2022-09-17T22:38:17.078Z,1.40
2022-09-17T22:43:18.345Z,1.63
2022-09-17T22:48:19.627Z,1.88
2022-09-17T22:53:20.925Z,2.08
2022-09-17T22:58:24.227Z,2.28
2022-09-17T23:03:26.542Z,1.73
2022-09-17T23:08:28.805Z,1.70
2022-09-17T23:13:30.154Z,1.80
2022-09-17T23:18:32.354Z,1.20
2022-09-17T23:23:35.439Z,1.30
2022-09-17T23:28:37.689Z,1.85
2022-09-17T23:33:39.219Z,1.40
2022-09-17T23:38:42.464Z,1.65
2022-09-17T23:43:46.365Z,1.33
2022-09-17T23:48:48.754Z,1.25
2022-09-17T23:53:50.730Z,1.30
2022-09-17T23:58:54.177Z,1.75
